sensor_id;sensor_type;location;lat;lon;timestamp;P1;durP1;ratioP1;P2;durP2;ratioP2
75038;SDS011;63609;49.992;14.512;2023-05-07T00:03:31;21.15;;;9.55;;
75038;SDS011;63609;49.992;14.512;2023-05-07T00:05:59;24.35;;;10.45;;
75038;SDS011;63609;49.992;14.512;2023-05-07T00:08:26;18.85;;;9.68;;
75038;SDS011;63609;49.992;14.512;2023-05-07T00:10:53;20.08;;;10.25;;
75038;SDS011;63609;49.992;14.512;2023-05-07T00:13:20;19.90;;;10.00;;
75038;SDS011;63609;49.992;14.512;2023-05-07T00:15:47;16.92;;;9.07;;
75038;SDS011;63609;49.992;14.512;2023-05-07T00:18:14;18.33;;;9.77;;
75038;SDS011;63609;49.992;14.512;2023-05-07T00:20:42;22.38;;;10.43;;
75038;SDS011;63609;49.992;14.512;2023-05-07T00:23:09;21.20;;;10.20;;
75038;SDS011;63609;49.992;14.512;2023-05-07T00:25:36;19.02;;;9.80;;
75038;SDS011;63609;49.992;14.512;2023-05-07T00:28:03;18.80;;;9.70;;
75038;SDS011;63609;49.992;14.512;2023-05-07T00:30:30;21.73;;;10.48;;
75038;SDS011;63609;49.992;14.512;2023-05-07T00:32:58;20.75;;;10.05;;
75038;SDS011;63609;49.992;14.512;2023-05-07T00:35:25;19.15;;;9.55;;
75038;SDS011;63609;49.992;14.512;2023-05-07T00:37:52;19.75;;;11.00;;
75038;SDS011;63609;49.992;14.512;2023-05-07T00:40:19;23.42;;;11.27;;
75038;SDS011;63609;49.992;14.512;2023-05-07T00:42:46;19.95;;;9.85;;
75038;SDS011;63609;49.992;14.512;2023-05-07T00:45:14;17.85;;;9.63;;
75038;SDS011;63609;49.992;14.512;2023-05-07T00:47:42;17.95;;;9.35;;
75038;SDS011;63609;49.992;14.512;2023-05-07T00:50:09;18.80;;;9.30;;
75038;SDS011;63609;49.992;14.512;2023-05-07T00:52:37;20.92;;;10.32;;
75038;SDS011;63609;49.992;14.512;2023-05-07T00:55:05;19.83;;;9.77;;
75038;SDS011;63609;49.992;14.512;2023-05-07T00:57:37;19.10;;;9.82;;
75038;SDS011;63609;49.992;14.512;2023-05-07T01:00:06;20.65;;;10.45;;
75038;SDS011;63609;49.992;14.512;2023-05-07T01:02:35;20.08;;;10.15;;
75038;SDS011;63609;49.992;14.512;2023-05-07T01:05:03;19.73;;;10.40;;
75038;SDS011;63609;49.992;14.512;2023-05-07T01:07:32;20.00;;;9.95;;
75038;SDS011;63609;49.992;14.512;2023-05-07T01:10:01;21.08;;;10.40;;
75038;SDS011;63609;49.992;14.512;2023-05-07T01:12:29;23.70;;;10.27;;
75038;SDS011;63609;49.992;14.512;2023-05-07T01:14:57;20.58;;;10.30;;
75038;SDS011;63609;49.992;14.512;2023-05-07T01:17:25;20.92;;;9.70;;
75038;SDS011;63609;49.992;14.512;2023-05-07T01:19:52;20.38;;;9.80;;
75038;SDS011;63609;49.992;14.512;2023-05-07T01:22:33;17.58;;;9.02;;
75038;SDS011;63609;49.992;14.512;2023-05-07T01:25:06;20.55;;;10.45;;
75038;SDS011;63609;49.992;14.512;2023-05-07T01:27:39;20.60;;;11.32;;
75038;SDS011;63609;49.992;14.512;2023-05-07T01:30:07;20.10;;;9.55;;
75038;SDS011;63609;49.992;14.512;2023-05-07T01:35:05;20.60;;;9.80;;
75038;SDS011;63609;49.992;14.512;2023-05-07T01:37:34;17.63;;;10.07;;
75038;SDS011;63609;49.992;14.512;2023-05-07T01:40:01;20.80;;;9.18;;
75038;SDS011;63609;49.992;14.512;2023-05-07T01:42:29;18.73;;;9.27;;
75038;SDS011;63609;49.992;14.512;2023-05-07T01:44:56;18.52;;;9.23;;
75038;SDS011;63609;49.992;14.512;2023-05-07T01:47:24;18.40;;;8.95;;
75038;SDS011;63609;49.992;14.512;2023-05-07T01:49:52;17.38;;;9.30;;
75038;SDS011;63609;49.992;14.512;2023-05-07T01:52:20;19.23;;;9.27;;
75038;SDS011;63609;49.992;14.512;2023-05-07T01:54:47;19.75;;;9.13;;
75038;SDS011;63609;49.992;14.512;2023-05-07T01:57:14;15.85;;;8.25;;
75038;SDS011;63609;49.992;14.512;2023-05-07T01:59:41;17.95;;;8.65;;
75038;SDS011;63609;49.992;14.512;2023-05-07T02:02:08;22.35;;;9.43;;
75038;SDS011;63609;49.992;14.512;2023-05-07T02:04:38;19.77;;;9.15;;
75038;SDS011;63609;49.992;14.512;2023-05-07T02:07:05;18.45;;;9.23;;
75038;SDS011;63609;49.992;14.512;2023-05-07T02:09:32;18.15;;;9.32;;
75038;SDS011;63609;49.992;14.512;2023-05-07T02:12:00;15.48;;;8.52;;
75038;SDS011;63609;49.992;14.512;2023-05-07T02:14:28;15.45;;;8.10;;
75038;SDS011;63609;49.992;14.512;2023-05-07T02:16:55;16.83;;;8.30;;
75038;SDS011;63609;49.992;14.512;2023-05-07T02:19:23;16.20;;;8.63;;
75038;SDS011;63609;49.992;14.512;2023-05-07T02:21:50;14.95;;;7.32;;
75038;SDS011;63609;49.992;14.512;2023-05-07T02:24:17;17.10;;;8.18;;
75038;SDS011;63609;49.992;14.512;2023-05-07T02:26:44;18.70;;;8.68;;
75038;SDS011;63609;49.992;14.512;2023-05-07T02:29:11;16.98;;;8.48;;
75038;SDS011;63609;49.992;14.512;2023-05-07T02:31:39;17.48;;;8.35;;
75038;SDS011;63609;49.992;14.512;2023-05-07T02:34:06;19.73;;;8.75;;
75038;SDS011;63609;49.992;14.512;2023-05-07T02:36:33;19.25;;;8.60;;
75038;SDS011;63609;49.992;14.512;2023-05-07T02:39:08;16.20;;;8.18;;
75038;SDS011;63609;49.992;14.512;2023-05-07T02:41:35;20.60;;;9.45;;
75038;SDS011;63609;49.992;14.512;2023-05-07T02:44:03;18.35;;;9.18;;
75038;SDS011;63609;49.992;14.512;2023-05-07T02:46:31;20.17;;;8.73;;
75038;SDS011;63609;49.992;14.512;2023-05-07T02:49:02;15.30;;;8.13;;
75038;SDS011;63609;49.992;14.512;2023-05-07T02:51:30;17.58;;;7.97;;
75038;SDS011;63609;49.992;14.512;2023-05-07T02:54:00;18.33;;;8.38;;
75038;SDS011;63609;49.992;14.512;2023-05-07T02:56:28;16.30;;;8.20;;
75038;SDS011;63609;49.992;14.512;2023-05-07T02:58:55;15.45;;;8.07;;
75038;SDS011;63609;49.992;14.512;2023-05-07T03:01:26;15.25;;;8.02;;
75038;SDS011;63609;49.992;14.512;2023-05-07T03:04:16;18.05;;;8.88;;
75038;SDS011;63609;49.992;14.512;2023-05-07T03:06:44;13.50;;;7.22;;
75038;SDS011;63609;49.992;14.512;2023-05-07T03:09:12;12.85;;;6.40;;
75038;SDS011;63609;49.992;14.512;2023-05-07T03:11:39;11.00;;;6.10;;
75038;SDS011;63609;49.992;14.512;2023-05-07T03:14:07;9.27;;;5.38;;
75038;SDS011;63609;49.992;14.512;2023-05-07T03:16:35;10.38;;;5.18;;
75038;SDS011;63609;49.992;14.512;2023-05-07T03:19:04;9.85;;;5.43;;
75038;SDS011;63609;49.992;14.512;2023-05-07T03:21:31;9.90;;;5.53;;
75038;SDS011;63609;49.992;14.512;2023-05-07T03:24:01;9.88;;;4.97;;
75038;SDS011;63609;49.992;14.512;2023-05-07T03:26:29;12.13;;;5.80;;
75038;SDS011;63609;49.992;14.512;2023-05-07T03:28:56;11.13;;;5.40;;
75038;SDS011;63609;49.992;14.512;2023-05-07T03:31:25;10.98;;;5.72;;
75038;SDS011;63609;49.992;14.512;2023-05-07T03:33:53;10.43;;;5.40;;
75038;SDS011;63609;49.992;14.512;2023-05-07T03:36:23;11.07;;;5.43;;
75038;SDS011;63609;49.992;14.512;2023-05-07T03:38:51;11.40;;;5.72;;
75038;SDS011;63609;49.992;14.512;2023-05-07T03:41:21;10.43;;;5.57;;
75038;SDS011;63609;49.992;14.512;2023-05-07T03:43:50;9.65;;;5.13;;
75038;SDS011;63609;49.992;14.512;2023-05-07T03:46:18;10.10;;;5.53;;
75038;SDS011;63609;49.992;14.512;2023-05-07T03:48:47;12.07;;;6.55;;
75038;SDS011;63609;49.992;14.512;2023-05-07T03:51:16;11.30;;;6.30;;
75038;SDS011;63609;49.992;14.512;2023-05-07T03:53:44;12.10;;;5.80;;
75038;SDS011;63609;49.992;14.512;2023-05-07T03:56:12;14.68;;;6.97;;
75038;SDS011;63609;49.992;14.512;2023-05-07T03:58:40;13.13;;;6.95;;
75038;SDS011;63609;49.992;14.512;2023-05-07T04:01:10;14.25;;;7.85;;
75038;SDS011;63609;49.992;14.512;2023-05-07T04:03:37;16.42;;;7.60;;
75038;SDS011;63609;49.992;14.512;2023-05-07T04:06:05;17.42;;;7.80;;
75038;SDS011;63609;49.992;14.512;2023-05-07T04:08:34;16.75;;;8.25;;
75038;SDS011;63609;49.992;14.512;2023-05-07T04:11:03;15.75;;;7.43;;
75038;SDS011;63609;49.992;14.512;2023-05-07T04:13:32;18.10;;;8.52;;
75038;SDS011;63609;49.992;14.512;2023-05-07T04:16:02;16.65;;;8.15;;
75038;SDS011;63609;49.992;14.512;2023-05-07T04:18:33;19.85;;;9.25;;
75038;SDS011;63609;49.992;14.512;2023-05-07T04:21:01;17.15;;;8.13;;
75038;SDS011;63609;49.992;14.512;2023-05-07T04:23:29;17.05;;;7.63;;
75038;SDS011;63609;49.992;14.512;2023-05-07T04:26:02;15.18;;;7.72;;
75038;SDS011;63609;49.992;14.512;2023-05-07T04:28:37;17.02;;;8.15;;
75038;SDS011;63609;49.992;14.512;2023-05-07T04:31:07;13.20;;;7.13;;
75038;SDS011;63609;49.992;14.512;2023-05-07T04:33:36;14.40;;;6.88;;
75038;SDS011;63609;49.992;14.512;2023-05-07T04:36:07;13.02;;;7.35;;
75038;SDS011;63609;49.992;14.512;2023-05-07T04:38:42;14.75;;;7.20;;
75038;SDS011;63609;49.992;14.512;2023-05-07T04:41:12;15.18;;;7.18;;
75038;SDS011;63609;49.992;14.512;2023-05-07T04:43:41;11.20;;;6.18;;
75038;SDS011;63609;49.992;14.512;2023-05-07T04:46:11;13.02;;;7.28;;
75038;SDS011;63609;49.992;14.512;2023-05-07T04:48:40;12.27;;;6.72;;
75038;SDS011;63609;49.992;14.512;2023-05-07T04:51:08;12.90;;;6.53;;
75038;SDS011;63609;49.992;14.512;2023-05-07T04:53:35;11.23;;;5.70;;
75038;SDS011;63609;49.992;14.512;2023-05-07T04:56:02;10.90;;;5.78;;
75038;SDS011;63609;49.992;14.512;2023-05-07T04:58:37;10.90;;;6.75;;
75038;SDS011;63609;49.992;14.512;2023-05-07T05:01:06;11.77;;;6.55;;
75038;SDS011;63609;49.992;14.512;2023-05-07T05:03:33;10.25;;;6.00;;
75038;SDS011;63609;49.992;14.512;2023-05-07T05:06:01;11.18;;;6.20;;
75038;SDS011;63609;49.992;14.512;2023-05-07T05:08:33;11.30;;;6.68;;
75038;SDS011;63609;49.992;14.512;2023-05-07T05:11:02;11.60;;;6.18;;
75038;SDS011;63609;49.992;14.512;2023-05-07T05:13:32;10.82;;;6.47;;
75038;SDS011;63609;49.992;14.512;2023-05-07T05:16:02;10.93;;;5.80;;
75038;SDS011;63609;49.992;14.512;2023-05-07T05:18:32;11.35;;;6.03;;
75038;SDS011;63609;49.992;14.512;2023-05-07T05:21:00;11.05;;;6.40;;
75038;SDS011;63609;49.992;14.512;2023-05-07T05:23:28;10.73;;;5.90;;
75038;SDS011;63609;49.992;14.512;2023-05-07T05:26:03;11.70;;;5.90;;
75038;SDS011;63609;49.992;14.512;2023-05-07T05:28:32;10.60;;;5.72;;
75038;SDS011;63609;49.992;14.512;2023-05-07T05:31:02;11.88;;;6.20;;
75038;SDS011;63609;49.992;14.512;2023-05-07T05:33:35;10.95;;;6.38;;
75038;SDS011;63609;49.992;14.512;2023-05-07T05:36:04;10.07;;;6.22;;
75038;SDS011;63609;49.992;14.512;2023-05-07T05:38:33;9.90;;;5.63;;
75038;SDS011;63609;49.992;14.512;2023-05-07T05:41:02;10.63;;;5.60;;
75038;SDS011;63609;49.992;14.512;2023-05-07T05:43:31;10.70;;;6.00;;
75038;SDS011;63609;49.992;14.512;2023-05-07T05:46:14;11.63;;;5.93;;
75038;SDS011;63609;49.992;14.512;2023-05-07T05:49:31;10.43;;;6.07;;
75038;SDS011;63609;49.992;14.512;2023-05-07T05:52:02;10.65;;;5.63;;
75038;SDS011;63609;49.992;14.512;2023-05-07T05:54:31;10.73;;;6.18;;
75038;SDS011;63609;49.992;14.512;2023-05-07T05:57:00;11.85;;;6.13;;
75038;SDS011;63609;49.992;14.512;2023-05-07T05:59:31;10.40;;;5.95;;
75038;SDS011;63609;49.992;14.512;2023-05-07T06:01:58;12.50;;;6.43;;
75038;SDS011;63609;49.992;14.512;2023-05-07T06:04:28;12.07;;;6.03;;
75038;SDS011;63609;49.992;14.512;2023-05-07T06:06:56;12.52;;;5.53;;
75038;SDS011;63609;49.992;14.512;2023-05-07T06:09:25;11.55;;;5.47;;
75038;SDS011;63609;49.992;14.512;2023-05-07T06:11:52;9.75;;;5.13;;
75038;SDS011;63609;49.992;14.512;2023-05-07T06:14:19;8.60;;;4.65;;
75038;SDS011;63609;49.992;14.512;2023-05-07T06:16:49;8.18;;;4.75;;
75038;SDS011;63609;49.992;14.512;2023-05-07T06:19:16;8.38;;;4.53;;
75038;SDS011;63609;49.992;14.512;2023-05-07T06:21:52;9.15;;;4.80;;
75038;SDS011;63609;49.992;14.512;2023-05-07T06:24:25;7.85;;;4.90;;
75038;SDS011;63609;49.992;14.512;2023-05-07T06:26:52;9.55;;;5.35;;
75038;SDS011;63609;49.992;14.512;2023-05-07T06:29:20;10.75;;;5.53;;
75038;SDS011;63609;49.992;14.512;2023-05-07T06:31:47;9.52;;;5.20;;
75038;SDS011;63609;49.992;14.512;2023-05-07T06:34:16;8.60;;;4.60;;
75038;SDS011;63609;49.992;14.512;2023-05-07T06:36:46;10.05;;;5.00;;
75038;SDS011;63609;49.992;14.512;2023-05-07T06:39:29;9.55;;;5.32;;
75038;SDS011;63609;49.992;14.512;2023-05-07T06:41:56;9.35;;;5.10;;
75038;SDS011;63609;49.992;14.512;2023-05-07T06:44:30;7.38;;;4.40;;
75038;SDS011;63609;49.992;14.512;2023-05-07T06:47:06;11.10;;;5.05;;
75038;SDS011;63609;49.992;14.512;2023-05-07T06:49:54;9.18;;;4.15;;
75038;SDS011;63609;49.992;14.512;2023-05-07T06:52:26;9.68;;;4.70;;
75038;SDS011;63609;49.992;14.512;2023-05-07T06:54:54;8.48;;;4.45;;
75038;SDS011;63609;49.992;14.512;2023-05-07T06:57:26;10.07;;;5.15;;
75038;SDS011;63609;49.992;14.512;2023-05-07T06:59:53;9.50;;;4.90;;
75038;SDS011;63609;49.992;14.512;2023-05-07T07:02:21;8.65;;;4.70;;
75038;SDS011;63609;49.992;14.512;2023-05-07T07:04:49;8.65;;;4.40;;
75038;SDS011;63609;49.992;14.512;2023-05-07T07:07:18;9.32;;;4.60;;
75038;SDS011;63609;49.992;14.512;2023-05-07T07:09:47;10.25;;;4.90;;
75038;SDS011;63609;49.992;14.512;2023-05-07T07:12:17;9.02;;;4.82;;
75038;SDS011;63609;49.992;14.512;2023-05-07T07:14:48;10.63;;;5.10;;
75038;SDS011;63609;49.992;14.512;2023-05-07T07:17:18;8.98;;;5.28;;
75038;SDS011;63609;49.992;14.512;2023-05-07T07:19:48;8.63;;;4.60;;
75038;SDS011;63609;49.992;14.512;2023-05-07T07:22:18;9.43;;;5.18;;
75038;SDS011;63609;49.992;14.512;2023-05-07T07:24:49;10.20;;;4.65;;
75038;SDS011;63609;49.992;14.512;2023-05-07T07:27:21;8.70;;;4.65;;
75038;SDS011;63609;49.992;14.512;2023-05-07T07:29:49;7.07;;;4.13;;
75038;SDS011;63609;49.992;14.512;2023-05-07T07:32:17;7.18;;;4.03;;
75038;SDS011;63609;49.992;14.512;2023-05-07T07:34:53;7.32;;;4.00;;
75038;SDS011;63609;49.992;14.512;2023-05-07T07:37:21;7.68;;;4.13;;
75038;SDS011;63609;49.992;14.512;2023-05-07T07:39:50;8.40;;;4.25;;
75038;SDS011;63609;49.992;14.512;2023-05-07T07:42:20;8.38;;;4.60;;
75038;SDS011;63609;49.992;14.512;2023-05-07T07:44:48;7.32;;;4.20;;
75038;SDS011;63609;49.992;14.512;2023-05-07T07:47:18;7.50;;;4.18;;
75038;SDS011;63609;49.992;14.512;2023-05-07T07:49:47;7.28;;;3.97;;
75038;SDS011;63609;49.992;14.512;2023-05-07T07:52:14;7.13;;;4.13;;
75038;SDS011;63609;49.992;14.512;2023-05-07T07:54:44;9.25;;;4.72;;
75038;SDS011;63609;49.992;14.512;2023-05-07T07:57:12;7.85;;;4.43;;
75038;SDS011;63609;49.992;14.512;2023-05-07T07:59:42;7.43;;;4.53;;
75038;SDS011;63609;49.992;14.512;2023-05-07T08:02:12;8.30;;;4.53;;
75038;SDS011;63609;49.992;14.512;2023-05-07T08:04:41;8.73;;;4.70;;
75038;SDS011;63609;49.992;14.512;2023-05-07T08:07:38;7.25;;;4.40;;
75038;SDS011;63609;49.992;14.512;2023-05-07T08:10:07;7.50;;;4.20;;
75038;SDS011;63609;49.992;14.512;2023-05-07T08:12:37;9.45;;;4.82;;
75038;SDS011;63609;49.992;14.512;2023-05-07T08:15:22;8.80;;;4.90;;
75038;SDS011;63609;49.992;14.512;2023-05-07T08:17:50;8.38;;;4.70;;
75038;SDS011;63609;49.992;14.512;2023-05-07T08:20:18;9.07;;;4.80;;
75038;SDS011;63609;49.992;14.512;2023-05-07T08:22:47;9.23;;;4.85;;
75038;SDS011;63609;49.992;14.512;2023-05-07T08:25:14;8.18;;;4.72;;
75038;SDS011;63609;49.992;14.512;2023-05-07T08:27:43;9.13;;;4.82;;
75038;SDS011;63609;49.992;14.512;2023-05-07T08:30:12;9.70;;;4.53;;
75038;SDS011;63609;49.992;14.512;2023-05-07T08:32:39;7.53;;;4.47;;
75038;SDS011;63609;49.992;14.512;2023-05-07T08:35:08;8.15;;;4.40;;
75038;SDS011;63609;49.992;14.512;2023-05-07T08:37:37;10.18;;;4.82;;
75038;SDS011;63609;49.992;14.512;2023-05-07T08:40:05;7.30;;;4.30;;
75038;SDS011;63609;49.992;14.512;2023-05-07T08:42:38;6.95;;;4.40;;
75038;SDS011;63609;49.992;14.512;2023-05-07T08:45:09;6.70;;;4.05;;
75038;SDS011;63609;49.992;14.512;2023-05-07T08:47:44;8.15;;;4.50;;
75038;SDS011;63609;49.992;14.512;2023-05-07T08:50:16;7.90;;;5.03;;
75038;SDS011;63609;49.992;14.512;2023-05-07T08:52:44;13.13;;;5.43;;
75038;SDS011;63609;49.992;14.512;2023-05-07T08:55:12;8.90;;;5.03;;
75038;SDS011;63609;49.992;14.512;2023-05-07T08:57:40;7.55;;;4.63;;
75038;SDS011;63609;49.992;14.512;2023-05-07T09:00:10;9.52;;;5.43;;
75038;SDS011;63609;49.992;14.512;2023-05-07T09:02:39;8.80;;;4.90;;
75038;SDS011;63609;49.992;14.512;2023-05-07T09:05:08;8.98;;;4.63;;
75038;SDS011;63609;49.992;14.512;2023-05-07T09:07:38;9.55;;;5.53;;
75038;SDS011;63609;49.992;14.512;2023-05-07T09:10:07;9.40;;;5.60;;
75038;SDS011;63609;49.992;14.512;2023-05-07T09:12:37;10.02;;;5.20;;
75038;SDS011;63609;49.992;14.512;2023-05-07T09:15:08;10.10;;;5.93;;
75038;SDS011;63609;49.992;14.512;2023-05-07T09:17:36;9.05;;;4.70;;
75038;SDS011;63609;49.992;14.512;2023-05-07T09:20:04;8.05;;;4.95;;
75038;SDS011;63609;49.992;14.512;2023-05-07T09:22:37;9.88;;;6.00;;
75038;SDS011;63609;49.992;14.512;2023-05-07T09:25:09;8.75;;;4.75;;
75038;SDS011;63609;49.992;14.512;2023-05-07T09:27:38;9.15;;;5.30;;
75038;SDS011;63609;49.992;14.512;2023-05-07T09:30:08;8.73;;;4.95;;
75038;SDS011;63609;49.992;14.512;2023-05-07T09:32:37;8.95;;;5.03;;
75038;SDS011;63609;49.992;14.512;2023-05-07T09:35:18;8.13;;;5.32;;
75038;SDS011;63609;49.992;14.512;2023-05-07T09:37:57;8.50;;;4.80;;
75038;SDS011;63609;49.992;14.512;2023-05-07T09:40:33;7.57;;;4.57;;
75038;SDS011;63609;49.992;14.512;2023-05-07T09:43:08;7.20;;;4.35;;
75038;SDS011;63609;49.992;14.512;2023-05-07T09:45:46;8.63;;;4.13;;
75038;SDS011;63609;49.992;14.512;2023-05-07T09:48:20;7.47;;;4.00;;
75038;SDS011;63609;49.992;14.512;2023-05-07T09:50:51;6.68;;;3.90;;
75038;SDS011;63609;49.992;14.512;2023-05-07T09:53:24;7.45;;;4.45;;
75038;SDS011;63609;49.992;14.512;2023-05-07T09:55:54;8.15;;;4.18;;
75038;SDS011;63609;49.992;14.512;2023-05-07T09:58:23;6.40;;;4.10;;
75038;SDS011;63609;49.992;14.512;2023-05-07T10:00:53;7.95;;;4.20;;
75038;SDS011;63609;49.992;14.512;2023-05-07T10:03:22;8.65;;;4.28;;
75038;SDS011;63609;49.992;14.512;2023-05-07T10:05:58;6.22;;;4.00;;
75038;SDS011;63609;49.992;14.512;2023-05-07T10:08:27;8.13;;;4.47;;
75038;SDS011;63609;49.992;14.512;2023-05-07T10:11:01;7.57;;;3.88;;
75038;SDS011;63609;49.992;14.512;2023-05-07T10:13:35;6.70;;;3.90;;
75038;SDS011;63609;49.992;14.512;2023-05-07T10:16:06;7.95;;;4.72;;
75038;SDS011;63609;49.992;14.512;2023-05-07T10:18:47;6.57;;;3.92;;
75038;SDS011;63609;49.992;14.512;2023-05-07T10:21:23;8.00;;;4.40;;
75038;SDS011;63609;49.992;14.512;2023-05-07T10:24:16;8.10;;;4.53;;
75038;SDS011;63609;49.992;14.512;2023-05-07T10:26:52;8.23;;;4.30;;
75038;SDS011;63609;49.992;14.512;2023-05-07T10:35:20;7.55;;;4.15;;
75038;SDS011;63609;49.992;14.512;2023-05-07T10:37:52;7.68;;;4.15;;
75038;SDS011;63609;49.992;14.512;2023-05-07T10:40:21;6.30;;;3.92;;
75038;SDS011;63609;49.992;14.512;2023-05-07T10:42:59;5.65;;;3.40;;
75038;SDS011;63609;49.992;14.512;2023-05-07T10:45:34;7.25;;;3.95;;
75038;SDS011;63609;49.992;14.512;2023-05-07T10:59:30;6.22;;;3.72;;
75038;SDS011;63609;49.992;14.512;2023-05-07T11:02:13;6.82;;;3.97;;
75038;SDS011;63609;49.992;14.512;2023-05-07T11:08:13;8.30;;;4.50;;
75038;SDS011;63609;49.992;14.512;2023-05-07T11:10:54;8.93;;;4.32;;
75038;SDS011;63609;49.992;14.512;2023-05-07T11:13:43;7.35;;;4.35;;
75038;SDS011;63609;49.992;14.512;2023-05-07T11:16:22;6.78;;;4.00;;
75038;SDS011;63609;49.992;14.512;2023-05-07T11:19:47;8.02;;;4.18;;
75038;SDS011;63609;49.992;14.512;2023-05-07T11:25:34;9.18;;;3.85;;
75038;SDS011;63609;49.992;14.512;2023-05-07T11:28:17;8.63;;;5.15;;
75038;SDS011;63609;49.992;14.512;2023-05-07T11:30:56;9.02;;;5.00;;
75038;SDS011;63609;49.992;14.512;2023-05-07T11:33:25;9.95;;;5.32;;
75038;SDS011;63609;49.992;14.512;2023-05-07T11:35:56;8.23;;;4.80;;
75038;SDS011;63609;49.992;14.512;2023-05-07T11:38:36;7.88;;;4.93;;
75038;SDS011;63609;49.992;14.512;2023-05-07T11:41:07;9.40;;;5.38;;
75038;SDS011;63609;49.992;14.512;2023-05-07T11:43:37;7.85;;;4.55;;
75038;SDS011;63609;49.992;14.512;2023-05-07T11:46:11;6.65;;;4.57;;
75038;SDS011;63609;49.992;14.512;2023-05-07T11:48:42;8.20;;;4.95;;
75038;SDS011;63609;49.992;14.512;2023-05-07T11:51:18;7.43;;;5.13;;
75038;SDS011;63609;49.992;14.512;2023-05-07T11:53:48;8.70;;;4.72;;
75038;SDS011;63609;49.992;14.512;2023-05-07T11:56:17;8.07;;;5.07;;
75038;SDS011;63609;49.992;14.512;2023-05-07T11:58:47;11.00;;;5.85;;
75038;SDS011;63609;49.992;14.512;2023-05-07T12:01:19;10.90;;;5.10;;
75038;SDS011;63609;49.992;14.512;2023-05-07T12:03:48;9.23;;;5.72;;
75038;SDS011;63609;49.992;14.512;2023-05-07T12:06:16;10.82;;;6.15;;
75038;SDS011;63609;49.992;14.512;2023-05-07T12:08:44;9.52;;;5.75;;
75038;SDS011;63609;49.992;14.512;2023-05-07T12:11:21;8.57;;;5.43;;
75038;SDS011;63609;49.992;14.512;2023-05-07T12:13:51;8.80;;;4.75;;
75038;SDS011;63609;49.992;14.512;2023-05-07T12:16:25;7.35;;;4.45;;
75038;SDS011;63609;49.992;14.512;2023-05-07T12:18:54;7.05;;;4.18;;
75038;SDS011;63609;49.992;14.512;2023-05-07T12:21:23;6.00;;;4.00;;
75038;SDS011;63609;49.992;14.512;2023-05-07T12:23:51;8.18;;;4.40;;
75038;SDS011;63609;49.992;14.512;2023-05-07T12:26:19;5.78;;;3.53;;
75038;SDS011;63609;49.992;14.512;2023-05-07T12:28:49;6.47;;;3.42;;
75038;SDS011;63609;49.992;14.512;2023-05-07T12:31:19;5.70;;;3.78;;
75038;SDS011;63609;49.992;14.512;2023-05-07T12:33:47;5.90;;;3.42;;
75038;SDS011;63609;49.992;14.512;2023-05-07T12:36:15;5.82;;;3.47;;
75038;SDS011;63609;49.992;14.512;2023-05-07T12:38:44;5.75;;;3.95;;
75038;SDS011;63609;49.992;14.512;2023-05-07T12:41:12;5.50;;;3.85;;
75038;SDS011;63609;49.992;14.512;2023-05-07T12:43:40;6.50;;;3.17;;
75038;SDS011;63609;49.992;14.512;2023-05-07T12:46:14;5.05;;;3.53;;
75038;SDS011;63609;49.992;14.512;2023-05-07T12:48:45;5.38;;;3.38;;
75038;SDS011;63609;49.992;14.512;2023-05-07T12:51:14;4.43;;;3.05;;
75038;SDS011;63609;49.992;14.512;2023-05-07T12:53:43;6.15;;;3.42;;
75038;SDS011;63609;49.992;14.512;2023-05-07T12:56:12;6.22;;;4.03;;
75038;SDS011;63609;49.992;14.512;2023-05-07T12:58:44;5.53;;;3.50;;
75038;SDS011;63609;49.992;14.512;2023-05-07T13:01:17;4.75;;;3.60;;
75038;SDS011;63609;49.992;14.512;2023-05-07T13:03:48;5.03;;;3.53;;
75038;SDS011;63609;49.992;14.512;2023-05-07T13:06:18;5.57;;;3.90;;
75038;SDS011;63609;49.992;14.512;2023-05-07T13:08:45;6.38;;;3.90;;
75038;SDS011;63609;49.992;14.512;2023-05-07T13:11:13;5.53;;;3.67;;
75038;SDS011;63609;49.992;14.512;2023-05-07T13:13:41;4.80;;;3.40;;
75038;SDS011;63609;49.992;14.512;2023-05-07T13:16:10;4.55;;;3.55;;
75038;SDS011;63609;49.992;14.512;2023-05-07T13:18:38;4.07;;;2.83;;
75038;SDS011;63609;49.992;14.512;2023-05-07T13:21:12;4.95;;;3.17;;
75038;SDS011;63609;49.992;14.512;2023-05-07T13:23:41;4.40;;;3.22;;
75038;SDS011;63609;49.992;14.512;2023-05-07T13:26:14;5.63;;;3.28;;
75038;SDS011;63609;49.992;14.512;2023-05-07T13:28:53;4.63;;;3.30;;
75038;SDS011;63609;49.992;14.512;2023-05-07T13:31:22;5.57;;;3.30;;
75038;SDS011;63609;49.992;14.512;2023-05-07T13:33:50;7.50;;;3.45;;
75038;SDS011;63609;49.992;14.512;2023-05-07T13:36:19;4.60;;;3.45;;
75038;SDS011;63609;49.992;14.512;2023-05-07T13:38:46;4.97;;;3.50;;
75038;SDS011;63609;49.992;14.512;2023-05-07T13:41:13;6.10;;;3.83;;
75038;SDS011;63609;49.992;14.512;2023-05-07T13:43:41;7.05;;;3.72;;
75038;SDS011;63609;49.992;14.512;2023-05-07T13:46:10;5.75;;;3.33;;
75038;SDS011;63609;49.992;14.512;2023-05-07T13:48:37;5.82;;;3.55;;
75038;SDS011;63609;49.992;14.512;2023-05-07T13:51:06;5.13;;;3.60;;
75038;SDS011;63609;49.992;14.512;2023-05-07T13:53:33;5.28;;;3.45;;
75038;SDS011;63609;49.992;14.512;2023-05-07T13:56:01;5.90;;;4.15;;
75038;SDS011;63609;49.992;14.512;2023-05-07T13:58:31;6.15;;;3.72;;
75038;SDS011;63609;49.992;14.512;2023-05-07T14:00:58;6.20;;;3.78;;
75038;SDS011;63609;49.992;14.512;2023-05-07T14:03:26;6.53;;;4.05;;
75038;SDS011;63609;49.992;14.512;2023-05-07T14:05:54;5.43;;;3.63;;
75038;SDS011;63609;49.992;14.512;2023-05-07T14:08:21;5.60;;;3.60;;
75038;SDS011;63609;49.992;14.512;2023-05-07T14:10:49;7.03;;;3.90;;
75038;SDS011;63609;49.992;14.512;2023-05-07T14:13:16;5.32;;;3.63;;
75038;SDS011;63609;49.992;14.512;2023-05-07T14:15:44;7.93;;;3.55;;
75038;SDS011;63609;49.992;14.512;2023-05-07T14:18:15;5.80;;;4.15;;
75038;SDS011;63609;49.992;14.512;2023-05-07T14:20:47;6.40;;;4.60;;
75038;SDS011;63609;49.992;14.512;2023-05-07T14:23:16;7.70;;;4.75;;
75038;SDS011;63609;49.992;14.512;2023-05-07T14:25:49;7.72;;;5.00;;
75038;SDS011;63609;49.992;14.512;2023-05-07T14:28:15;9.18;;;4.53;;
75038;SDS011;63609;49.992;14.512;2023-05-07T14:30:43;7.57;;;4.15;;
75038;SDS011;63609;49.992;14.512;2023-05-07T14:33:11;7.45;;;4.68;;
75038;SDS011;63609;49.992;14.512;2023-05-07T14:35:42;7.38;;;4.70;;
75038;SDS011;63609;49.992;14.512;2023-05-07T14:38:15;9.77;;;4.80;;
75038;SDS011;63609;49.992;14.512;2023-05-07T14:40:43;8.43;;;4.93;;
75038;SDS011;63609;49.992;14.512;2023-05-07T14:43:11;8.32;;;4.75;;
75038;SDS011;63609;49.992;14.512;2023-05-07T14:45:45;8.02;;;4.60;;
75038;SDS011;63609;49.992;14.512;2023-05-07T14:48:14;6.95;;;4.30;;
75038;SDS011;63609;49.992;14.512;2023-05-07T14:50:42;6.25;;;4.47;;
75038;SDS011;63609;49.992;14.512;2023-05-07T14:53:09;5.45;;;3.60;;
75038;SDS011;63609;49.992;14.512;2023-05-07T14:55:36;7.30;;;4.30;;
75038;SDS011;63609;49.992;14.512;2023-05-07T14:58:04;5.60;;;3.70;;
75038;SDS011;63609;49.992;14.512;2023-05-07T15:00:32;5.88;;;4.03;;
75038;SDS011;63609;49.992;14.512;2023-05-07T15:03:04;5.10;;;3.63;;
75038;SDS011;63609;49.992;14.512;2023-05-07T15:05:40;10.13;;;4.00;;
75038;SDS011;63609;49.992;14.512;2023-05-07T15:08:09;5.63;;;3.78;;
75038;SDS011;63609;49.992;14.512;2023-05-07T15:10:37;30.75;;;6.32;;
75038;SDS011;63609;49.992;14.512;2023-05-07T15:13:09;4.38;;;2.92;;
75038;SDS011;63609;49.992;14.512;2023-05-07T15:15:44;4.80;;;2.80;;